sensor_id;sensor_type;location;lat;lon;timestamp;P1;durP1;ratioP1;P2;durP2;ratioP2
52868;SDS011;39100;53.480;6.158;2023-05-07T00:00:33;10.35;;;5.55;;
52868;SDS011;39100;53.480;6.158;2023-05-07T00:02:59;7.68;;;5.20;;
52868;SDS011;39100;53.480;6.158;2023-05-07T00:05:25;8.10;;;5.32;;
52868;SDS011;39100;53.480;6.158;2023-05-07T00:07:51;7.53;;;5.38;;
52868;SDS011;39100;53.480;6.158;2023-05-07T00:10:17;8.85;;;5.30;;
52868;SDS011;39100;53.480;6.158;2023-05-07T00:12:43;15.65;;;6.18;;
52868;SDS011;39100;53.480;6.158;2023-05-07T00:15:09;9.30;;;5.35;;
52868;SDS011;39100;53.480;6.158;2023-05-07T00:17:35;8.82;;;5.63;;
52868;SDS011;39100;53.480;6.158;2023-05-07T00:20:02;8.32;;;5.13;;
52868;SDS011;39100;53.480;6.158;2023-05-07T00:22:28;6.65;;;4.88;;
52868;SDS011;39100;53.480;6.158;2023-05-07T00:24:55;7.20;;;4.70;;
52868;SDS011;39100;53.480;6.158;2023-05-07T00:27:21;8.43;;;5.50;;
52868;SDS011;39100;53.480;6.158;2023-05-07T00:29:47;8.63;;;5.50;;
52868;SDS011;39100;53.480;6.158;2023-05-07T00:32:13;8.60;;;6.20;;
52868;SDS011;39100;53.480;6.158;2023-05-07T00:34:38;7.43;;;4.93;;
52868;SDS011;39100;53.480;6.158;2023-05-07T00:37:04;8.50;;;5.13;;
52868;SDS011;39100;53.480;6.158;2023-05-07T00:39:32;8.75;;;6.35;;
52868;SDS011;39100;53.480;6.158;2023-05-07T00:41:58;8.18;;;5.65;;
52868;SDS011;39100;53.480;6.158;2023-05-07T00:44:24;9.48;;;5.57;;
52868;SDS011;39100;53.480;6.158;2023-05-07T00:46:50;8.63;;;4.82;;
52868;SDS011;39100;53.480;6.158;2023-05-07T00:49:16;7.82;;;5.57;;
52868;SDS011;39100;53.480;6.158;2023-05-07T00:51:42;7.00;;;5.03;;
52868;SDS011;39100;53.480;6.158;2023-05-07T00:54:08;8.90;;;6.10;;
52868;SDS011;39100;53.480;6.158;2023-05-07T00:56:34;10.95;;;6.97;;
52868;SDS011;39100;53.480;6.158;2023-05-07T00:59:03;10.77;;;6.22;;
52868;SDS011;39100;53.480;6.158;2023-05-07T01:01:29;11.85;;;6.97;;
52868;SDS011;39100;53.480;6.158;2023-05-07T01:03:56;8.90;;;6.35;;
52868;SDS011;39100;53.480;6.158;2023-05-07T01:06:23;11.00;;;7.15;;
52868;SDS011;39100;53.480;6.158;2023-05-07T01:08:50;9.38;;;6.60;;
52868;SDS011;39100;53.480;6.158;2023-05-07T01:11:17;9.82;;;6.70;;
52868;SDS011;39100;53.480;6.158;2023-05-07T01:13:45;11.80;;;7.63;;
52868;SDS011;39100;53.480;6.158;2023-05-07T01:16:12;9.57;;;7.00;;
52868;SDS011;39100;53.480;6.158;2023-05-07T01:18:38;12.18;;;8.38;;
52868;SDS011;39100;53.480;6.158;2023-05-07T01:21:04;11.52;;;7.82;;
52868;SDS011;39100;53.480;6.158;2023-05-07T01:23:30;9.98;;;7.05;;
52868;SDS011;39100;53.480;6.158;2023-05-07T01:25:56;12.05;;;7.53;;
52868;SDS011;39100;53.480;6.158;2023-05-07T01:28:22;8.30;;;6.13;;
52868;SDS011;39100;53.480;6.158;2023-05-07T01:30:49;10.93;;;8.18;;
52868;SDS011;39100;53.480;6.158;2023-05-07T01:33:19;11.75;;;8.30;;
52868;SDS011;39100;53.480;6.158;2023-05-07T01:35:50;14.67;;;9.27;;
52868;SDS011;39100;53.480;6.158;2023-05-07T01:38:18;13.25;;;8.15;;
52868;SDS011;39100;53.480;6.158;2023-05-07T01:40:45;12.43;;;8.35;;
52868;SDS011;39100;53.480;6.158;2023-05-07T01:43:11;15.93;;;9.95;;
52868;SDS011;39100;53.480;6.158;2023-05-07T01:45:37;15.70;;;9.70;;
52868;SDS011;39100;53.480;6.158;2023-05-07T01:48:03;18.05;;;10.90;;
52868;SDS011;39100;53.480;6.158;2023-05-07T01:50:30;20.15;;;11.85;;
52868;SDS011;39100;53.480;6.158;2023-05-07T01:52:56;22.92;;;13.32;;
52868;SDS011;39100;53.480;6.158;2023-05-07T01:55:22;15.98;;;11.07;;
52868;SDS011;39100;53.480;6.158;2023-05-07T01:57:48;19.30;;;12.07;;
52868;SDS011;39100;53.480;6.158;2023-05-07T02:00:14;17.35;;;11.40;;
52868;SDS011;39100;53.480;6.158;2023-05-07T02:02:40;17.20;;;11.35;;
52868;SDS011;39100;53.480;6.158;2023-05-07T02:05:05;19.73;;;12.20;;
52868;SDS011;39100;53.480;6.158;2023-05-07T02:07:31;18.52;;;11.27;;
52868;SDS011;39100;53.480;6.158;2023-05-07T02:09:57;17.50;;;12.15;;
52868;SDS011;39100;53.480;6.158;2023-05-07T02:12:22;17.05;;;11.02;;
52868;SDS011;39100;53.480;6.158;2023-05-07T02:14:48;21.92;;;13.10;;
52868;SDS011;39100;53.480;6.158;2023-05-07T02:17:14;18.48;;;11.75;;
52868;SDS011;39100;53.480;6.158;2023-05-07T02:19:39;19.15;;;12.20;;
52868;SDS011;39100;53.480;6.158;2023-05-07T02:22:05;20.85;;;13.07;;
52868;SDS011;39100;53.480;6.158;2023-05-07T02:24:31;17.13;;;11.48;;
52868;SDS011;39100;53.480;6.158;2023-05-07T02:26:57;18.50;;;12.38;;
52868;SDS011;39100;53.480;6.158;2023-05-07T02:29:22;21.05;;;13.90;;
52868;SDS011;39100;53.480;6.158;2023-05-07T02:31:48;18.17;;;12.18;;
52868;SDS011;39100;53.480;6.158;2023-05-07T02:34:18;20.98;;;12.93;;
52868;SDS011;39100;53.480;6.158;2023-05-07T02:36:44;22.67;;;13.30;;
52868;SDS011;39100;53.480;6.158;2023-05-07T02:39:10;21.42;;;12.35;;
52868;SDS011;39100;53.480;6.158;2023-05-07T02:41:37;21.48;;;12.85;;
52868;SDS011;39100;53.480;6.158;2023-05-07T02:44:03;23.17;;;13.40;;
52868;SDS011;39100;53.480;6.158;2023-05-07T02:46:28;25.30;;;14.65;;
52868;SDS011;39100;53.480;6.158;2023-05-07T02:48:54;18.80;;;12.38;;
52868;SDS011;39100;53.480;6.158;2023-05-07T02:51:21;21.05;;;12.82;;
52868;SDS011;39100;53.480;6.158;2023-05-07T02:53:47;20.50;;;13.75;;
52868;SDS011;39100;53.480;6.158;2023-05-07T02:56:13;23.20;;;13.35;;
52868;SDS011;39100;53.480;6.158;2023-05-07T02:58:38;23.55;;;13.52;;
52868;SDS011;39100;53.480;6.158;2023-05-07T03:01:05;21.67;;;12.65;;
52868;SDS011;39100;53.480;6.158;2023-05-07T03:03:31;17.15;;;11.55;;
52868;SDS011;39100;53.480;6.158;2023-05-07T03:05:56;23.25;;;14.15;;
52868;SDS011;39100;53.480;6.158;2023-05-07T03:08:22;19.20;;;12.38;;
52868;SDS011;39100;53.480;6.158;2023-05-07T03:10:49;22.23;;;12.90;;
52868;SDS011;39100;53.480;6.158;2023-05-07T03:13:15;25.90;;;15.13;;
52868;SDS011;39100;53.480;6.158;2023-05-07T03:15:40;27.35;;;15.82;;
52868;SDS011;39100;53.480;6.158;2023-05-07T03:18:06;26.90;;;15.32;;
52868;SDS011;39100;53.480;6.158;2023-05-07T03:20:32;28.45;;;16.38;;
52868;SDS011;39100;53.480;6.158;2023-05-07T03:22:57;27.55;;;16.15;;
52868;SDS011;39100;53.480;6.158;2023-05-07T03:25:23;29.00;;;17.00;;
52868;SDS011;39100;53.480;6.158;2023-05-07T03:27:48;27.45;;;16.67;;
52868;SDS011;39100;53.480;6.158;2023-05-07T03:30:14;25.15;;;15.43;;
52868;SDS011;39100;53.480;6.158;2023-05-07T03:32:40;25.80;;;14.90;;
52868;SDS011;39100;53.480;6.158;2023-05-07T03:35:05;27.73;;;16.45;;
52868;SDS011;39100;53.480;6.158;2023-05-07T03:37:31;25.88;;;16.25;;
52868;SDS011;39100;53.480;6.158;2023-05-07T03:39:57;26.25;;;15.35;;
52868;SDS011;39100;53.480;6.158;2023-05-07T03:42:23;24.60;;;15.15;;
52868;SDS011;39100;53.480;6.158;2023-05-07T03:44:48;24.60;;;15.35;;
52868;SDS011;39100;53.480;6.158;2023-05-07T03:47:14;25.48;;;15.43;;
52868;SDS011;39100;53.480;6.158;2023-05-07T03:49:39;26.50;;;15.73;;
52868;SDS011;39100;53.480;6.158;2023-05-07T03:52:05;30.42;;;17.55;;
52868;SDS011;39100;53.480;6.158;2023-05-07T03:54:31;24.17;;;15.82;;
52868;SDS011;39100;53.480;6.158;2023-05-07T03:56:56;22.15;;;13.57;;
52868;SDS011;39100;53.480;6.158;2023-05-07T03:59:22;22.70;;;14.30;;
52868;SDS011;39100;53.480;6.158;2023-05-07T04:01:48;23.02;;;13.43;;
52868;SDS011;39100;53.480;6.158;2023-05-07T04:04:14;22.15;;;13.50;;
52868;SDS011;39100;53.480;6.158;2023-05-07T04:06:40;19.80;;;12.80;;
52868;SDS011;39100;53.480;6.158;2023-05-07T04:09:06;23.70;;;13.90;;
52868;SDS011;39100;53.480;6.158;2023-05-07T04:11:31;27.10;;;14.70;;
52868;SDS011;39100;53.480;6.158;2023-05-07T04:13:57;22.90;;;14.32;;
52868;SDS011;39100;53.480;6.158;2023-05-07T04:16:23;23.25;;;14.00;;
52868;SDS011;39100;53.480;6.158;2023-05-07T04:18:48;21.73;;;13.88;;
52868;SDS011;39100;53.480;6.158;2023-05-07T04:21:14;20.90;;;13.35;;
52868;SDS011;39100;53.480;6.158;2023-05-07T04:23:40;22.13;;;14.23;;
52868;SDS011;39100;53.480;6.158;2023-05-07T04:26:06;22.95;;;13.77;;
52868;SDS011;39100;53.480;6.158;2023-05-07T04:28:32;23.15;;;13.90;;
52868;SDS011;39100;53.480;6.158;2023-05-07T04:30:57;24.58;;;15.90;;
52868;SDS011;39100;53.480;6.158;2023-05-07T04:33:23;21.33;;;13.20;;
52868;SDS011;39100;53.480;6.158;2023-05-07T04:35:48;21.55;;;12.90;;
52868;SDS011;39100;53.480;6.158;2023-05-07T04:38:14;19.98;;;13.02;;
52868;SDS011;39100;53.480;6.158;2023-05-07T04:40:40;24.48;;;14.98;;
52868;SDS011;39100;53.480;6.158;2023-05-07T04:43:06;22.30;;;13.52;;
52868;SDS011;39100;53.480;6.158;2023-05-07T04:45:34;21.95;;;14.30;;
52868;SDS011;39100;53.480;6.158;2023-05-07T04:48:00;24.67;;;14.75;;
52868;SDS011;39100;53.480;6.158;2023-05-07T04:50:26;24.98;;;14.70;;
52868;SDS011;39100;53.480;6.158;2023-05-07T04:52:51;25.08;;;14.27;;
52868;SDS011;39100;53.480;6.158;2023-05-07T04:55:17;24.10;;;15.77;;
52868;SDS011;39100;53.480;6.158;2023-05-07T04:57:43;27.83;;;15.90;;
52868;SDS011;39100;53.480;6.158;2023-05-07T05:00:08;24.15;;;14.60;;
52868;SDS011;39100;53.480;6.158;2023-05-07T05:02:34;20.60;;;13.43;;
52868;SDS011;39100;53.480;6.158;2023-05-07T05:05:00;20.33;;;13.55;;
52868;SDS011;39100;53.480;6.158;2023-05-07T05:07:27;20.63;;;12.93;;
52868;SDS011;39100;53.480;6.158;2023-05-07T05:09:53;21.17;;;13.00;;
52868;SDS011;39100;53.480;6.158;2023-05-07T05:12:19;19.27;;;13.10;;
52868;SDS011;39100;53.480;6.158;2023-05-07T05:14:45;20.58;;;13.75;;
52868;SDS011;39100;53.480;6.158;2023-05-07T05:17:10;24.25;;;14.88;;
52868;SDS011;39100;53.480;6.158;2023-05-07T05:19:36;20.50;;;13.38;;
52868;SDS011;39100;53.480;6.158;2023-05-07T05:22:01;21.52;;;14.07;;
52868;SDS011;39100;53.480;6.158;2023-05-07T05:24:28;24.30;;;14.45;;
52868;SDS011;39100;53.480;6.158;2023-05-07T05:26:55;23.42;;;14.00;;
52868;SDS011;39100;53.480;6.158;2023-05-07T05:29:20;22.15;;;14.05;;
52868;SDS011;39100;53.480;6.158;2023-05-07T05:31:46;20.48;;;13.82;;
52868;SDS011;39100;53.480;6.158;2023-05-07T05:34:12;23.60;;;13.20;;
52868;SDS011;39100;53.480;6.158;2023-05-07T05:36:37;20.80;;;12.80;;
52868;SDS011;39100;53.480;6.158;2023-05-07T05:39:03;19.55;;;13.07;;
52868;SDS011;39100;53.480;6.158;2023-05-07T05:41:29;22.35;;;13.50;;
52868;SDS011;39100;53.480;6.158;2023-05-07T05:43:55;19.00;;;12.15;;
52868;SDS011;39100;53.480;6.158;2023-05-07T05:46:21;20.75;;;13.70;;
52868;SDS011;39100;53.480;6.158;2023-05-07T05:48:46;22.98;;;14.30;;
52868;SDS011;39100;53.480;6.158;2023-05-07T05:51:12;20.80;;;13.88;;
52868;SDS011;39100;53.480;6.158;2023-05-07T05:53:38;22.35;;;14.27;;
52868;SDS011;39100;53.480;6.158;2023-05-07T05:56:03;21.40;;;13.27;;
52868;SDS011;39100;53.480;6.158;2023-05-07T05:58:29;23.00;;;13.50;;
52868;SDS011;39100;53.480;6.158;2023-05-07T06:00:55;23.67;;;15.20;;
52868;SDS011;39100;53.480;6.158;2023-05-07T06:03:21;26.73;;;14.10;;
52868;SDS011;39100;53.480;6.158;2023-05-07T06:05:47;21.10;;;13.82;;
52868;SDS011;39100;53.480;6.158;2023-05-07T06:08:13;23.05;;;14.10;;
52868;SDS011;39100;53.480;6.158;2023-05-07T06:10:38;20.75;;;13.55;;
52868;SDS011;39100;53.480;6.158;2023-05-07T06:13:04;22.30;;;13.82;;
52868;SDS011;39100;53.480;6.158;2023-05-07T06:15:30;20.15;;;12.45;;
52868;SDS011;39100;53.480;6.158;2023-05-07T06:17:55;22.15;;;13.35;;
52868;SDS011;39100;53.480;6.158;2023-05-07T06:20:22;24.55;;;14.88;;
52868;SDS011;39100;53.480;6.158;2023-05-07T06:22:48;21.10;;;13.82;;
52868;SDS011;39100;53.480;6.158;2023-05-07T06:25:13;25.40;;;15.20;;
52868;SDS011;39100;53.480;6.158;2023-05-07T06:27:39;22.77;;;14.10;;
52868;SDS011;39100;53.480;6.158;2023-05-07T06:30:05;22.50;;;14.27;;
52868;SDS011;39100;53.480;6.158;2023-05-07T06:32:32;24.80;;;15.35;;
52868;SDS011;39100;53.480;6.158;2023-05-07T06:34:57;25.23;;;15.23;;
52868;SDS011;39100;53.480;6.158;2023-05-07T06:37:23;29.92;;;15.75;;
52868;SDS011;39100;53.480;6.158;2023-05-07T06:39:48;23.60;;;14.98;;
52868;SDS011;39100;53.480;6.158;2023-05-07T06:42:14;24.42;;;15.35;;
52868;SDS011;39100;53.480;6.158;2023-05-07T06:44:40;26.95;;;17.30;;
52868;SDS011;39100;53.480;6.158;2023-05-07T06:47:06;24.77;;;15.30;;
52868;SDS011;39100;53.480;6.158;2023-05-07T06:49:31;24.13;;;14.52;;
52868;SDS011;39100;53.480;6.158;2023-05-07T06:51:57;22.58;;;14.25;;
52868;SDS011;39100;53.480;6.158;2023-05-07T06:54:23;22.77;;;14.48;;
52868;SDS011;39100;53.480;6.158;2023-05-07T06:56:48;20.80;;;14.10;;
52868;SDS011;39100;53.480;6.158;2023-05-07T06:59:14;22.88;;;15.13;;
52868;SDS011;39100;53.480;6.158;2023-05-07T07:01:40;21.45;;;14.27;;
52868;SDS011;39100;53.480;6.158;2023-05-07T07:04:06;22.92;;;14.18;;
52868;SDS011;39100;53.480;6.158;2023-05-07T07:06:31;22.20;;;14.27;;
52868;SDS011;39100;53.480;6.158;2023-05-07T07:08:57;23.58;;;15.38;;
52868;SDS011;39100;53.480;6.158;2023-05-07T07:11:23;24.08;;;15.50;;
52868;SDS011;39100;53.480;6.158;2023-05-07T07:13:49;22.23;;;13.93;;
52868;SDS011;39100;53.480;6.158;2023-05-07T07:16:15;25.13;;;15.40;;
52868;SDS011;39100;53.480;6.158;2023-05-07T07:18:41;20.23;;;13.98;;
52868;SDS011;39100;53.480;6.158;2023-05-07T07:21:07;20.90;;;14.27;;
52868;SDS011;39100;53.480;6.158;2023-05-07T07:23:32;20.88;;;13.32;;
52868;SDS011;39100;53.480;6.158;2023-05-07T07:25:58;21.65;;;13.82;;
52868;SDS011;39100;53.480;6.158;2023-05-07T07:28:23;22.98;;;14.60;;
52868;SDS011;39100;53.480;6.158;2023-05-07T07:30:49;24.02;;;15.30;;
52868;SDS011;39100;53.480;6.158;2023-05-07T07:33:15;22.50;;;14.20;;
52868;SDS011;39100;53.480;6.158;2023-05-07T07:35:40;25.45;;;15.52;;
52868;SDS011;39100;53.480;6.158;2023-05-07T07:38:07;22.58;;;14.38;;
52868;SDS011;39100;53.480;6.158;2023-05-07T07:40:34;21.77;;;14.02;;
52868;SDS011;39100;53.480;6.158;2023-05-07T07:43:00;19.80;;;13.48;;
52868;SDS011;39100;53.480;6.158;2023-05-07T07:45:26;22.50;;;13.85;;
52868;SDS011;39100;53.480;6.158;2023-05-07T07:47:52;20.63;;;13.30;;
52868;SDS011;39100;53.480;6.158;2023-05-07T07:50:17;19.90;;;11.80;;
52868;SDS011;39100;53.480;6.158;2023-05-07T07:52:43;23.23;;;13.68;;
52868;SDS011;39100;53.480;6.158;2023-05-07T07:55:09;19.50;;;12.38;;
52868;SDS011;39100;53.480;6.158;2023-05-07T07:57:35;17.02;;;11.82;;
52868;SDS011;39100;53.480;6.158;2023-05-07T08:00:00;22.98;;;14.30;;
52868;SDS011;39100;53.480;6.158;2023-05-07T08:02:26;22.95;;;13.82;;
52868;SDS011;39100;53.480;6.158;2023-05-07T08:04:51;24.73;;;15.32;;
52868;SDS011;39100;53.480;6.158;2023-05-07T08:07:17;23.77;;;15.20;;
52868;SDS011;39100;53.480;6.158;2023-05-07T08:09:45;22.48;;;15.00;;
52868;SDS011;39100;53.480;6.158;2023-05-07T08:12:11;23.10;;;15.20;;
52868;SDS011;39100;53.480;6.158;2023-05-07T08:14:37;22.27;;;14.48;;
52868;SDS011;39100;53.480;6.158;2023-05-07T08:17:03;23.80;;;15.73;;
52868;SDS011;39100;53.480;6.158;2023-05-07T08:19:28;23.35;;;16.15;;
52868;SDS011;39100;53.480;6.158;2023-05-07T08:21:54;28.98;;;17.02;;
52868;SDS011;39100;53.480;6.158;2023-05-07T08:24:20;23.08;;;15.15;;
52868;SDS011;39100;53.480;6.158;2023-05-07T08:26:46;24.92;;;16.30;;
52868;SDS011;39100;53.480;6.158;2023-05-07T08:29:11;26.67;;;15.88;;
52868;SDS011;39100;53.480;6.158;2023-05-07T08:31:37;27.10;;;17.40;;
52868;SDS011;39100;53.480;6.158;2023-05-07T08:34:05;30.02;;;19.05;;
52868;SDS011;39100;53.480;6.158;2023-05-07T08:36:31;27.55;;;17.35;;
52868;SDS011;39100;53.480;6.158;2023-05-07T08:38:57;27.02;;;17.02;;
52868;SDS011;39100;53.480;6.158;2023-05-07T08:41:23;23.25;;;15.65;;
52868;SDS011;39100;53.480;6.158;2023-05-07T08:43:49;27.10;;;16.27;;
52868;SDS011;39100;53.480;6.158;2023-05-07T08:46:19;24.58;;;16.05;;
52868;SDS011;39100;53.480;6.158;2023-05-07T08:48:49;25.27;;;15.75;;
52868;SDS011;39100;53.480;6.158;2023-05-07T08:51:16;25.17;;;15.40;;
52868;SDS011;39100;53.480;6.158;2023-05-07T08:53:46;21.48;;;14.90;;
52868;SDS011;39100;53.480;6.158;2023-05-07T08:56:16;19.45;;;13.35;;
52868;SDS011;39100;53.480;6.158;2023-05-07T08:58:42;20.83;;;14.05;;
52868;SDS011;39100;53.480;6.158;2023-05-07T09:01:10;20.27;;;14.27;;
52868;SDS011;39100;53.480;6.158;2023-05-07T09:03:39;20.02;;;13.93;;
52868;SDS011;39100;53.480;6.158;2023-05-07T09:06:06;19.77;;;13.73;;
52868;SDS011;39100;53.480;6.158;2023-05-07T09:08:32;21.50;;;14.55;;
52868;SDS011;39100;53.480;6.158;2023-05-07T09:10:59;22.15;;;14.68;;
52868;SDS011;39100;53.480;6.158;2023-05-07T09:13:25;23.27;;;15.10;;
52868;SDS011;39100;53.480;6.158;2023-05-07T09:15:51;22.58;;;14.30;;
52868;SDS011;39100;53.480;6.158;2023-05-07T09:18:17;24.20;;;15.57;;
52868;SDS011;39100;53.480;6.158;2023-05-07T09:20:43;21.98;;;14.57;;
52868;SDS011;39100;53.480;6.158;2023-05-07T09:23:08;23.20;;;14.90;;
52868;SDS011;39100;53.480;6.158;2023-05-07T09:25:35;22.42;;;14.63;;
52868;SDS011;39100;53.480;6.158;2023-05-07T09:28:01;23.65;;;15.77;;
52868;SDS011;39100;53.480;6.158;2023-05-07T09:30:28;21.25;;;14.73;;
52868;SDS011;39100;53.480;6.158;2023-05-07T09:32:56;21.10;;;14.70;;
52868;SDS011;39100;53.480;6.158;2023-05-07T09:35:25;22.83;;;15.32;;
52868;SDS011;39100;53.480;6.158;2023-05-07T09:37:58;21.45;;;14.20;;
52868;SDS011;39100;53.480;6.158;2023-05-07T09:40:27;24.77;;;16.10;;
52868;SDS011;39100;53.480;6.158;2023-05-07T09:42:54;22.65;;;15.65;;
52868;SDS011;39100;53.480;6.158;2023-05-07T09:45:26;20.33;;;13.48;;
52868;SDS011;39100;53.480;6.158;2023-05-07T09:47:54;20.65;;;13.10;;
52868;SDS011;39100;53.480;6.158;2023-05-07T09:50:32;19.88;;;13.20;;
52868;SDS011;39100;53.480;6.158;2023-05-07T09:53:03;17.02;;;11.40;;
52868;SDS011;39100;53.480;6.158;2023-05-07T09:55:29;18.92;;;12.52;;
52868;SDS011;39100;53.480;6.158;2023-05-07T09:57:56;19.67;;;12.52;;
52868;SDS011;39100;53.480;6.158;2023-05-07T10:00:23;16.58;;;12.20;;
52868;SDS011;39100;53.480;6.158;2023-05-07T10:02:53;16.70;;;12.23;;
52868;SDS011;39100;53.480;6.158;2023-05-07T10:05:22;18.65;;;12.63;;
52868;SDS011;39100;53.480;6.158;2023-05-07T10:07:49;14.50;;;10.77;;
52868;SDS011;39100;53.480;6.158;2023-05-07T10:10:15;18.15;;;12.43;;
52868;SDS011;39100;53.480;6.158;2023-05-07T10:12:42;16.63;;;11.93;;
52868;SDS011;39100;53.480;6.158;2023-05-07T10:15:08;14.95;;;11.13;;
52868;SDS011;39100;53.480;6.158;2023-05-07T10:17:37;16.33;;;11.00;;
52868;SDS011;39100;53.480;6.158;2023-05-07T10:20:04;16.30;;;10.35;;
52868;SDS011;39100;53.480;6.158;2023-05-07T10:22:45;14.32;;;10.02;;
52868;SDS011;39100;53.480;6.158;2023-05-07T10:25:22;14.95;;;10.80;;
52868;SDS011;39100;53.480;6.158;2023-05-07T10:27:54;13.40;;;9.18;;
52868;SDS011;39100;53.480;6.158;2023-05-07T10:32:56;12.77;;;8.05;;
52868;SDS011;39100;53.480;6.158;2023-05-07T10:35:30;13.10;;;8.38;;
52868;SDS011;39100;53.480;6.158;2023-05-07T10:38:01;12.65;;;8.98;;
52868;SDS011;39100;53.480;6.158;2023-05-07T10:40:27;11.65;;;8.32;;
52868;SDS011;39100;53.480;6.158;2023-05-07T10:42:59;15.43;;;9.35;;
52868;SDS011;39100;53.480;6.158;2023-05-07T10:45:27;14.25;;;9.20;;
52868;SDS011;39100;53.480;6.158;2023-05-07T10:48:06;15.23;;;10.43;;
52868;SDS011;39100;53.480;6.158;2023-05-07T10:50:44;18.50;;;11.43;;
52868;SDS011;39100;53.480;6.158;2023-05-07T10:55:41;16.90;;;12.13;;
52868;SDS011;39100;53.480;6.158;2023-05-07T10:58:26;15.93;;;10.98;;
52868;SDS011;39100;53.480;6.158;2023-05-07T11:00:56;14.30;;;10.90;;
52868;SDS011;39100;53.480;6.158;2023-05-07T11:03:24;14.82;;;10.80;;
52868;SDS011;39100;53.480;6.158;2023-05-07T11:14:09;11.68;;;9.93;;
52868;SDS011;39100;53.480;6.158;2023-05-07T11:16:34;13.60;;;11.00;;
52868;SDS011;39100;53.480;6.158;2023-05-07T11:19:01;14.65;;;10.27;;
52868;SDS011;39100;53.480;6.158;2023-05-07T11:21:32;15.07;;;10.00;;
52868;SDS011;39100;53.480;6.158;2023-05-07T11:24:03;10.65;;;7.88;;
52868;SDS011;39100;53.480;6.158;2023-05-07T11:26:31;10.70;;;7.95;;
52868;SDS011;39100;53.480;6.158;2023-05-07T11:29:10;8.93;;;6.85;;
52868;SDS011;39100;53.480;6.158;2023-05-07T11:31:42;9.00;;;7.07;;
52868;SDS011;39100;53.480;6.158;2023-05-07T11:34:08;8.43;;;5.72;;
52868;SDS011;39100;53.480;6.158;2023-05-07T11:36:34;8.20;;;5.85;;
52868;SDS011;39100;53.480;6.158;2023-05-07T11:39:22;7.30;;;5.38;;
52868;SDS011;39100;53.480;6.158;2023-05-07T11:41:51;10.23;;;7.22;;
52868;SDS011;39100;53.480;6.158;2023-05-07T11:44:17;9.27;;;7.43;;
52868;SDS011;39100;53.480;6.158;2023-05-07T11:46:43;12.18;;;8.55;;
52868;SDS011;39100;53.480;6.158;2023-05-07T11:49:09;12.23;;;9.00;;
52868;SDS011;39100;53.480;6.158;2023-05-07T11:51:35;9.75;;;7.13;;
52868;SDS011;39100;53.480;6.158;2023-05-07T11:54:03;10.18;;;6.05;;
52868;SDS011;39100;53.480;6.158;2023-05-07T11:56:29;9.07;;;7.32;;
52868;SDS011;39100;53.480;6.158;2023-05-07T11:58:59;15.30;;;10.93;;
52868;SDS011;39100;53.480;6.158;2023-05-07T12:01:24;12.02;;;9.68;;
52868;SDS011;39100;53.480;6.158;2023-05-07T12:03:50;12.25;;;8.55;;
52868;SDS011;39100;53.480;6.158;2023-05-07T12:06:16;10.63;;;7.65;;
52868;SDS011;39100;53.480;6.158;2023-05-07T12:08:42;11.82;;;7.70;;
52868;SDS011;39100;53.480;6.158;2023-05-07T12:11:09;11.82;;;7.25;;
52868;SDS011;39100;53.480;6.158;2023-05-07T12:13:55;9.65;;;6.97;;
52868;SDS011;39100;53.480;6.158;2023-05-07T12:16:21;7.47;;;6.70;;
52868;SDS011;39100;53.480;6.158;2023-05-07T12:18:47;8.13;;;5.90;;
52868;SDS011;39100;53.480;6.158;2023-05-07T12:21:13;9.32;;;6.22;;
52868;SDS011;39100;53.480;6.158;2023-05-07T12:23:39;10.38;;;7.13;;
52868;SDS011;39100;53.480;6.158;2023-05-07T12:26:05;11.15;;;7.30;;
52868;SDS011;39100;53.480;6.158;2023-05-07T12:28:31;8.77;;;6.95;;
52868;SDS011;39100;53.480;6.158;2023-05-07T12:31:02;6.88;;;6.07;;
52868;SDS011;39100;53.480;6.158;2023-05-07T12:33:28;8.27;;;6.90;;
52868;SDS011;39100;53.480;6.158;2023-05-07T12:35:55;8.05;;;6.60;;
52868;SDS011;39100;53.480;6.158;2023-05-07T12:38:21;9.85;;;7.13;;
52868;SDS011;39100;53.480;6.158;2023-05-07T12:40:48;8.95;;;7.30;;
52868;SDS011;39100;53.480;6.158;2023-05-07T12:43:24;8.07;;;7.10;;
52868;SDS011;39100;53.480;6.158;2023-05-07T12:45:53;9.60;;;7.07;;
52868;SDS011;39100;53.480;6.158;2023-05-07T12:48:20;8.18;;;6.43;;
52868;SDS011;39100;53.480;6.158;2023-05-07T12:50:53;8.35;;;6.32;;
52868;SDS011;39100;53.480;6.158;2023-05-07T12:53:20;9.75;;;6.60;;
52868;SDS011;39100;53.480;6.158;2023-05-07T12:55:49;7.43;;;6.65;;
52868;SDS011;39100;53.480;6.158;2023-05-07T13:00:53;8.43;;;7.03;;
52868;SDS011;39100;53.480;6.158;2023-05-07T13:03:26;9.95;;;6.65;;
52868;SDS011;39100;53.480;6.158;2023-05-07T13:05:55;6.85;;;6.05;;
52868;SDS011;39100;53.480;6.158;2023-05-07T13:08:24;7.55;;;6.18;;
52868;SDS011;39100;53.480;6.158;2023-05-07T13:10:50;10.10;;;6.05;;
52868;SDS011;39100;53.480;6.158;2023-05-07T13:13:16;9.32;;;7.75;;
52868;SDS011;39100;53.480;6.158;2023-05-07T13:15:41;7.60;;;6.45;;
52868;SDS011;39100;53.480;6.158;2023-05-07T13:18:07;9.07;;;6.97;;
52868;SDS011;39100;53.480;6.158;2023-05-07T13:20:32;7.85;;;6.45;;
52868;SDS011;39100;53.480;6.158;2023-05-07T13:22:58;8.27;;;7.38;;
52868;SDS011;39100;53.480;6.158;2023-05-07T13:25:26;8.88;;;7.68;;
52868;SDS011;39100;53.480;6.158;2023-05-07T13:27:52;8.50;;;6.75;;
52868;SDS011;39100;53.480;6.158;2023-05-07T13:30:18;9.73;;;7.15;;
52868;SDS011;39100;53.480;6.158;2023-05-07T13:32:43;6.88;;;5.63;;
52868;SDS011;39100;53.480;6.158;2023-05-07T13:35:10;6.35;;;5.05;;
52868;SDS011;39100;53.480;6.158;2023-05-07T13:37:36;5.20;;;4.70;;
52868;SDS011;39100;53.480;6.158;2023-05-07T13:40:01;7.35;;;5.78;;
52868;SDS011;39100;53.480;6.158;2023-05-07T13:42:27;7.85;;;6.20;;
52868;SDS011;39100;53.480;6.158;2023-05-07T13:44:53;6.65;;;5.95;;
52868;SDS011;39100;53.480;6.158;2023-05-07T13:47:18;7.78;;;6.70;;
52868;SDS011;39100;53.480;6.158;2023-05-07T13:49:44;6.80;;;6.10;;
52868;SDS011;39100;53.480;6.158;2023-05-07T13:52:10;8.60;;;7.45;;
52868;SDS011;39100;53.480;6.158;2023-05-07T13:54:36;9.88;;;6.80;;
52868;SDS011;39100;53.480;6.158;2023-05-07T13:57:01;9.00;;;7.20;;
52868;SDS011;39100;53.480;6.158;2023-05-07T13:59:27;9.63;;;7.40;;
52868;SDS011;39100;53.480;6.158;2023-05-07T14:01:52;6.85;;;6.13;;
52868;SDS011;39100;53.480;6.158;2023-05-07T14:04:19;7.68;;;6.50;;
52868;SDS011;39100;53.480;6.158;2023-05-07T14:06:45;8.27;;;7.47;;
52868;SDS011;39100;53.480;6.158;2023-05-07T14:09:11;8.00;;;7.20;;
52868;SDS011;39100;53.480;6.158;2023-05-07T14:11:38;7.43;;;6.63;;
52868;SDS011;39100;53.480;6.158;2023-05-07T14:14:04;7.75;;;6.65;;
52868;SDS011;39100;53.480;6.158;2023-05-07T14:16:30;7.13;;;6.43;;
52868;SDS011;39100;53.480;6.158;2023-05-07T14:18:55;8.48;;;6.93;;
52868;SDS011;39100;53.480;6.158;2023-05-07T14:21:21;8.40;;;7.10;;
52868;SDS011;39100;53.480;6.158;2023-05-07T14:23:47;7.30;;;6.60;;
52868;SDS011;39100;53.480;6.158;2023-05-07T14:26:13;7.10;;;6.40;;
52868;SDS011;39100;53.480;6.158;2023-05-07T14:28:38;6.68;;;5.95;;
52868;SDS011;39100;53.480;6.158;2023-05-07T14:31:04;6.65;;;6.03;;
52868;SDS011;39100;53.480;6.158;2023-05-07T14:33:31;6.85;;;6.07;;
52868;SDS011;39100;53.480;6.158;2023-05-07T14:35:57;6.78;;;5.60;;
52868;SDS011;39100;53.480;6.158;2023-05-07T14:38:22;5.60;;;5.00;;
52868;SDS011;39100;53.480;6.158;2023-05-07T14:40:48;5.93;;;5.32;;
52868;SDS011;39100;53.480;6.158;2023-05-07T14:43:13;6.22;;;4.95;;